Latest Weather Observations for Emerald

IDQ60801

Issued at 7:02 pm EST Monday 27 April 2015 (issued every 30 minutes, with the page automatically refreshed every 10 minutes)

About weather observations | Map of weather stations | Latest weather observations for QLD | Other Formats
Station Details ID: 035264 Name: EMERALD AIRPORT Lat: -23.57 Lon: 148.18 Height: 189.4 m
Data from the previous 72 hours. | See also: Recent months at Emerald
Date/Time
EST
Temp
°C
App
Temp
°C
Dew
Point
Rel
Hum
%
Delta-T
°C
Wind Press
QNH
hPa
Press
MSL
hPa
Rain
since 9 am
mm
Dir
 
Spd
km/h
Gust
km/h
Spd
kts
Gust
kts
27/07:00pm 19.7 16.3 2.1 31 8.1 ESE 9 13 5 7 1018.3 - 0.0
27/06:30pm 20.1 16.3 2.0 30 8.4 SE 11 13 6 7 1017.8 - 0.0
27/06:00pm 21.0 17.3 2.3 29 8.8 SE 11 13 6 7 1017.5 1016.7 0.0
27/05:30pm 22.7 18.5 1.7 25 9.9 ESE 13 15 7 8 1017.3 - 0.0
27/05:00pm 24.8 20.6 1.7 22 11.1 SSE 13 17 7 9 1017.0 - 0.0
27/04:30pm 25.4 20.9 2.2 22 11.3 SSE 15 24 8 13 1016.9 - 0.0
27/04:00pm 25.7 21.1 1.8 21 11.5 S 15 24 8 13 1016.7 - 0.0
27/03:30pm 25.5 20.9 1.6 21 11.5 S 15 22 8 12 1016.6 - 0.0
27/03:00pm 25.4 21.7 2.2 22 11.2 SE 11 20 6 11 1016.4 1015.6 0.0
27/02:30pm 25.4 21.4 2.8 23 11.1 S 13 20 7 11 1016.6 - 0.0
27/02:00pm 24.6 19.8 2.7 24 10.7 S 17 28 9 15 1016.9 - 0.0
27/01:30pm 24.3 20.4 3.6 26 10.2 S 13 24 7 13 1017.3 - 0.0
27/01:00pm 23.6 19.0 3.5 27 9.9 SSE 17 22 9 12 1017.8 - 0.0
27/12:30pm 23.3 18.7 3.8 28 9.6 SE 17 26 9 14 1018.3 - 0.0
27/12:00pm 22.3 17.3 3.4 29 9.1 S 19 30 10 16 1018.9 1018.1 0.0
27/11:30am 22.0 17.1 4.1 31 8.8 SSE 19 28 10 15 1019.7 - 0.0
27/11:00am 21.0 15.1 4.1 33 8.2 SE 24 33 13 18 1020.2 - 0.0
27/10:30am 20.9 15.5 4.5 34 8.0 SSE 22 32 12 17 1020.7 - 0.0
27/10:00am 20.1 14.6 4.2 35 7.7 SE 22 33 12 18 1020.8 - 0.0
27/09:30am 19.7 14.5 3.8 35 7.6 SSE 20 26 11 14 1021.2 - 0.0
27/09:00am 18.7 13.4 2.9 35 7.4 SSE 20 28 11 15 1021.3 1020.5 0.0
27/08:30am 17.7 12.3 2.5 36 7.0 SSE 20 28 11 15 1021.2 - 0.0
27/08:00am 15.9 12.2 2.3 40 6.1 S 11 15 6 8 1020.9 - 0.0
27/07:30am 13.5 9.8 2.4 47 4.9 SSW 11 13 6 7 1020.8 - 0.0
27/07:00am 10.7 7.0 2.5 57 3.5 SSW 11 13 6 7 1020.5 - 0.0
27/06:30am 9.5 6.6 1.7 58 3.3 SW 6 7 3 4 1020.2 - 0.0
27/06:00am 10.1 6.3 1.7 56 3.5 SSW 11 13 6 7 1019.9 1019.0 0.0
27/05:30am 9.9 6.1 1.5 56 3.5 S 11 13 6 7 1019.5 - 0.0
27/05:00am 9.9 6.4 1.0 54 3.7 SSW 9 11 5 6 1019.3 - 0.0
27/04:30am 10.4 7.2 1.0 52 3.9 SSW 7 9 4 5 1019.0 - 0.0
27/04:00am 10.9 7.9 0.9 50 4.2 S 6 7 3 4 1018.9 - 0.0
27/03:30am 11.2 8.0 0.9 49 4.3 S 7 7 4 4 1018.7 - 0.0
27/03:00am 11.4 8.2 0.8 48 4.4 S 7 9 4 5 1018.6 1017.8 0.0
27/02:30am 11.9 8.4 1.0 47 4.6 S 9 11 5 6 1018.6 - 0.0
27/02:00am 12.0 8.4 0.8 46 4.7 S 9 11 5 6 1018.4 - 0.0
27/01:30am 12.3 8.7 0.7 45 4.9 SSW 9 11 5 6 1018.5 - 0.0
27/01:00am 12.5 8.1 0.6 44 5.0 S 13 15 7 8 1018.6 - 0.0
27/12:30am 13.5 9.5 0.5 41 5.5 S 11 13 6 7 1018.8 - 0.0
27/12:00am 14.1 10.1 0.4 39 5.8 S 11 11 6 6 1018.9 1018.1 0.0
 
Date/Time
EST
Temp
°C
App
Temp
°C
Dew
Point
Rel
Hum
%
Delta-T
°C
Wind Press
QNH
hPa
Press
MSL
hPa
Rain
since 9 am
mm
Dir
 
Spd
km/h
Gust
km/h
Spd
kts
Gust
kts
26/11:30pm 15.1 11.8 0.2 36 6.4 S 7 9 4 5 1019.0 - 0.0
26/11:00pm 15.2 11.9 0.2 36 6.4 SSE 7 9 4 5 1019.0 - 0.0
26/10:30pm 15.9 11.5 0.5 35 6.7 S 13 17 7 9 1018.7 - 0.0
26/10:00pm 16.3 12.2 0.0 33 7.0 SSE 11 15 6 8 1018.6 - 0.0
26/09:30pm 16.7 12.2 -0.5 31 7.4 SSE 13 17 7 9 1018.4 - 0.0
26/09:00pm 17.7 13.2 -0.1 30 7.8 S 13 19 7 10 1018.0 1017.2 0.0
26/08:30pm 18.3 13.4 -0.5 28 8.2 S 15 19 8 10 1017.6 - 0.0
26/08:00pm 19.4 14.1 -0.6 26 8.8 S 17 22 9 12 1017.2 - 0.0
26/07:30pm 20.4 15.5 -0.3 25 9.2 S 15 19 8 10 1016.8 - 0.0
26/07:00pm 22.1 16.2 -1.9 20 10.5 S 19 24 10 13 1016.2 - 0.0
26/06:30pm 23.2 17.3 -2.4 18 11.2 S 19 30 10 16 1015.8 - 0.0
26/06:00pm 22.9 17.7 -2.6 18 11.1 WSW 15 17 8 9 1015.2 1014.3 0.0
26/05:30pm 25.2 19.4 -4.2 14 12.6 WSW 17 22 9 12 1014.9 - 0.0
26/05:00pm 26.5 20.2 -4.1 13 13.3 WSW 20 26 11 14 1014.8 - 0.0
26/04:30pm 26.8 20.5 -3.9 13 13.5 WSW 20 28 11 15 1014.5 - 0.0
26/04:00pm 26.9 19.7 -4.9 12 13.7 WSW 24 33 13 18 1014.4 - 0.0
26/03:30pm 27.0 20.0 -3.7 13 13.5 WSW 24 33 13 18 1014.4 - 0.0
26/03:00pm 26.6 18.8 -4.0 13 13.4 WSW 28 35 15 19 1014.4 1013.5 0.0
26/02:30pm 26.7 19.8 -3.0 14 13.2 WSW 24 33 13 18 1014.5 - 0.0
26/02:00pm 26.5 19.3 -2.2 15 12.9 WSW 26 35 14 19 1014.6 - 0.0
26/01:30pm 25.9 19.0 -2.7 15 12.7 SW 24 32 13 17 1014.8 - 0.0
26/01:00pm 25.6 19.3 -1.2 17 12.2 WSW 22 32 12 17 1015.3 - 0.0
26/12:30pm 24.2 17.4 -1.6 18 11.6 WSW 24 37 13 20 1015.6 - 0.0
26/12:00pm 23.7 17.6 0.7 22 10.7 WSW 22 33 12 18 1015.8 1014.9 0.0
26/11:30am 22.8 16.8 1.2 24 10.1 WSW 22 35 12 19 1016.3 - 0.0
26/11:00am 22.6 16.0 2.1 26 9.7 WSW 26 37 14 20 1016.7 - 0.0
26/10:30am 22.8 17.1 0.6 23 10.3 SW 20 30 11 16 1017.0 - 0.0
26/10:00am 21.4 15.5 1.6 27 9.2 SSW 22 33 12 18 1017.3 - 0.0
26/09:30am 20.7 15.7 3.4 32 8.3 SSW 19 26 10 14 1017.6 - 0.0
26/09:00am 19.4 13.8 3.2 34 7.7 SSW 22 32 12 17 1017.6 1016.8 0.0
26/08:30am 18.5 13.4 3.2 36 7.2 SSW 19 26 10 14 1017.5 - 0.0
26/08:00am 16.8 12.5 3.1 40 6.3 SW 15 19 8 10 1017.2 - 0.0
26/07:30am 15.4 11.1 3.2 44 5.6 SW 15 20 8 11 1017.0 - 0.0
26/07:00am 14.2 9.8 2.5 45 5.2 SW 15 19 8 10 1016.7 - 0.0
26/06:30am 13.6 8.6 1.6 44 5.2 SW 17 19 9 10 1016.3 - 0.0
26/06:00am 13.5 9.2 1.2 43 5.3 SW 13 15 7 8 1015.9 1015.1 0.0
26/05:30am 13.8 9.5 0.8 41 5.6 SW 13 17 7 9 1015.7 - 0.0
26/05:00am 14.9 9.3 0.0 36 6.4 SW 19 24 10 13 1015.4 - 0.0
26/04:30am 15.7 10.2 0.3 35 6.7 SW 19 24 10 13 1015.4 - 0.0
26/04:00am 16.2 10.6 1.1 36 6.7 SW 20 24 11 13 1015.1 - 0.0
26/03:30am 16.9 10.1 1.0 34 7.0 SW 26 32 14 17 1014.9 - 0.0
26/03:00am 17.7 10.6 1.2 33 7.4 SW 28 35 15 19 1014.8 1013.9 0.0
26/02:30am 18.3 9.9 1.8 33 7.5 SW 35 46 19 25 1014.0 - 0.0
26/02:00am 19.0 11.3 2.4 33 7.7 SW 32 43 17 23 1014.0 - 0.0
26/01:30am 19.3 12.1 3.1 34 7.6 SW 30 39 16 21 1014.0 - 0.0
26/01:00am 19.4 12.3 3.6 35 7.5 SW 30 39 16 21 1014.0 - 0.0
26/12:30am 19.8 13.9 3.9 35 7.7 SW 24 32 13 17 1014.0 - 0.0
26/12:00am 19.1 14.3 5.6 41 6.7 WSW 20 24 11 13 1014.0 1013.1 0.0
 
Date/Time
EST
Temp
°C
App
Temp
°C
Dew
Point
Rel
Hum
%
Delta-T
°C
Wind Press
QNH
hPa
Press
MSL
hPa
Rain
since 9 am
mm
Dir
 
Spd
km/h
Gust
km/h
Spd
kts
Gust
kts
25/11:30pm 19.3 14.9 6.4 43 6.5 WSW 19 22 10 12 1014.1 - 0.0
25/11:00pm 20.3 15.8 5.9 39 7.2 WSW 19 24 10 13 1013.9 - 0.0
25/10:30pm 20.4 16.0 6.4 40 7.1 WSW 19 20 10 11 1013.9 - 0.0
25/10:00pm 21.6 16.4 5.5 35 8.1 WSW 22 26 12 14 1013.8 - 0.0
25/09:30pm 21.7 17.4 5.2 34 8.3 WSW 17 20 9 11 1013.9 - 0.0
25/09:00pm 21.7 18.4 6.4 37 7.8 WSW 13 15 7 8 1013.8 1012.9 0.0
25/08:30pm 23.0 18.7 5.4 32 8.9 SW 17 20 9 11 1013.5 - 0.0
25/08:00pm 23.8 19.4 6.6 33 8.9 SW 19 22 10 12 1013.0 - 0.0
25/07:30pm 24.2 19.8 4.6 28 9.9 WSW 17 19 9 10 1012.4 - 0.0
25/07:00pm 25.3 21.5 3.9 25 10.7 W 13 17 7 9 1011.9 - 0.0
25/06:30pm 25.9 21.7 3.8 24 11.1 WSW 15 17 8 9 1011.3 - 0.0
25/06:00pm 26.7 22.8 3.2 22 11.7 WSW 13 15 7 8 1010.8 1009.9 0.0
25/05:30pm 28.9 24.4 2.2 18 13.3 SW 15 20 8 11 1010.5 - 0.0
25/05:00pm 29.5 24.8 1.1 16 13.9 SW 15 22 8 12 1010.2 - 0.0
25/04:30pm 30.4 26.1 0.9 15 14.5 WSW 13 20 7 11 1010.0 - 0.0
25/04:00pm 30.6 25.5 1.0 15 14.6 W 17 28 9 15 1009.7 - 0.0
25/03:30pm 30.6 24.5 0.1 14 14.8 SW 22 28 12 15 1009.6 - 0.0
25/03:00pm 30.9 25.7 0.3 14 14.9 W 17 28 9 15 1009.4 1008.5 0.0
25/02:30pm 30.8 24.8 1.2 15 14.6 W 22 28 12 15 1009.4 - 0.0
25/02:00pm 30.4 25.8 1.8 16 14.2 SW 15 22 8 12 1009.7 - 0.0
25/01:30pm 30.8 25.9 2.1 16 14.4 W 17 33 9 18 1010.0 - 0.0
25/01:00pm 30.2 25.3 4.0 19 13.5 SW 19 26 10 14 1010.5 - 0.0
25/12:30pm 29.4 26.1 4.8 21 12.8 WSW 11 24 6 13 1010.9 - 0.0
25/12:00pm 28.7 25.1 4.9 22 12.4 WSW 13 20 7 11 1011.4 1010.6 0.0
25/11:30am 28.3 25.3 7.5 27 11.3 W 13 22 7 12 1011.7 - 0.0
25/11:00am 27.8 25.5 7.6 28 10.9 S 9 15 5 8 1012.2 - 0.0
25/10:30am 27.1 25.3 7.0 28 10.7 SW 6 13 3 7 1012.5 - 0.0
25/10:00am 26.1 24.3 8.1 32 9.7 S 7 13 4 7 1012.7 - 0.0
25/09:30am 24.2 22.2 8.6 37 8.4 SW 9 15 5 8 1012.9 - 0.0
25/09:00am 22.6 20.4 9.4 43 7.2 SW 11 15 6 8 1012.9 1012.1 0.0
25/08:30am 20.9 19.1 9.5 48 6.1 SSW 9 13 5 7 1012.8 - 0.0
25/08:00am 18.6 17.0 8.8 53 5.1 SSW 7 11 4 6 1012.7 - 0.0
25/07:30am 16.4 14.6 9.6 64 3.6 SSW 9 11 5 6 1012.5 - 0.0
25/07:00am 14.4 13.4 10.4 77 2.1 SSE 6 7 3 4 1012.2 - 0.0
25/06:30am 14.0 13.7 10.0 77 2.1 SSW 2 6 1 3 1011.8 - 0.0
25/06:00am 14.1 12.0 9.9 76 2.2 SW 11 13 6 7 1011.3 1010.5 0.0
25/05:30am 13.7 12.5 9.4 75 2.2 WSW 6 7 3 4 1011.0 - 0.0
25/05:00am 13.4 13.1 8.5 72 2.5 CALM 0 0 0 0 1010.9 - 0.0
25/04:30am 15.2 13.7 9.1 67 3.2 WNW 7 13 4 7 1010.7 - 0.0
25/04:00am 14.7 14.5 9.1 69 2.9 CALM 0 0 0 0 1010.6 - 0.0
25/03:30am 15.6 15.4 9.1 65 3.4 CALM 0 0 0 0 1010.6 - 0.0
25/03:00am 15.1 13.6 8.3 64 3.5 S 6 7 3 4 1010.8 1009.9 0.0
25/02:30am 15.5 13.6 9.0 65 3.4 S 9 11 5 6 1010.8 - 0.0
25/02:00am 15.4 13.8 8.6 64 3.5 S 7 9 4 5 1010.8 - 0.0
25/01:30am 15.6 13.7 9.1 65 3.4 SE 9 13 5 7 1010.8 - 0.0
25/01:00am 17.5 17.2 8.6 56 4.6 CALM 0 0 0 0 1010.7 - 0.0
25/12:30am 18.0 16.6 8.8 55 4.8 W 6 9 3 5 1011.1 - 0.0
25/12:00am 18.6 17.2 8.8 53 5.2 WNW 6 9 3 5 1011.2 1010.3 0.0
 
Date/Time
EST
Temp
°C
App
Temp
°C
Dew
Point
Rel
Hum
%
Delta-T
°C
Wind Press
QNH
hPa
Press
MSL
hPa
Rain
since 9 am
mm
Dir
 
Spd
km/h
Gust
km/h
Spd
kts
Gust
kts
24/11:30pm 18.8 17.2 8.2 50 5.5 NW 6 9 3 5 1011.2 - 0.0
24/11:00pm 19.0 17.9 8.6 51 5.5 NW 4 7 2 4 1011.2 - 0.0
24/10:30pm 19.3 17.9 9.5 53 5.2 NW 7 9 4 5 1011.3 - 0.0
24/10:00pm 20.2 20.1 9.5 50 5.7 CALM 0 0 0 0 1011.3 - 0.0
24/09:30pm 20.0 19.8 9.0 49 5.8 CALM 0 0 0 0 1011.2 - 0.0
24/09:00pm 20.0 19.2 8.0 46 6.3 SSW 2 6 1 3 1011.1 1010.2 0.0
24/08:30pm 20.7 20.3 8.4 45 6.5 CALM 0 0 0 0 1010.9 - 0.0
24/08:00pm 21.3 20.0 7.5 41 7.2 E 4 6 2 3 1010.7 - 0.0
24/07:30pm 22.3 21.0 7.7 39 7.7 E 4 6 2 3 1010.4 - 0.0

Other Formats:

Comma delimited format used in spreadsheet applications
http://www.bom.gov.au/fwo/IDQ60801/IDQ60801.94363.axf

JavaScript Object Notation format (JSON) in row-major order
http://www.bom.gov.au/fwo/IDQ60801/IDQ60801.94363.json